Current | Forecast
Updated: 12:30 AM EEST on April 27, 2017
Observed at Dnipropetrovs'k, Ukraine
Temperature 6°C
Windchill 3°C
Humidity 70%
Dew Point 1°C
Wind South at 14 km/h
Pressure 1023 hPa (Steady)
Conditions Clear
Visibility -
UV N/A
Clouds
Yesterday's Maximum 15°C
Yesterday's Minimum 3°C approx.
Yesterday's Heating Degree Days 17 approx.
Sunrise5:30 AM EEST
Sunset7:49 PM EEST
Moon Rise6:27 AM EEST
Moon Set8:59 PM EEST
Moon PhaseMoon Phase
New Moon
Raw METARMETAR UKDD 262130Z 17004MPS 140V210 CAVOK 06/01 Q1023 R08/090070 NOSIG


Monday
. High: 62° F.
Tuesday
. High: 62° F.
Wednesday
. High: 64° F.
Thursday
. High: 64° F.
Friday
. High: 64° F.
Saturday
. High: 64° F.
Sunday
. High: 66° F.
Monday
. High: 66° F.

Units: English | Metric

Find the Weather for any City, State or Zipcode, or Country:

U.S. State List | Severe Weather | Tropical Storms | Ski Conditions
United States | Canada | Central America | South America | Asia | Europe | Australia | Africa | Islands

Weather Underground

© Copyright 2017
The Weather Company, LLC